»·PEaware :: PAA576 KLAS-KDEN

PAA576 :: KLAS-KDEN

FLIGHT INFORMATION

Flight Status: Arrived
Operator:
PanAm
More flights by this operator :: More flights under this callsign
Pilot: Anonymous 8274 (8274)
Aircraft: BOEING 727-200
(B722)
More flights by this aircraft type
Origin: KLAS McCarran Intl
United States
Destination: KDEN Denver Intl
United States
More flights between these airports :: More routes between these airports
Route: +LAS5 DVC J146 HBU LARKS8
File this flight plan on PilotEdge
Remarks:
Altitude:
(Current/Filed)
33,000ft
Speed:
(Current/Filed)
460kts
Departed: 08-Aug-18 02:09 PM
Arrived: 08-Aug-18 03:37 PM
Distance/Time
Traveled:
545nm/1:27
Distance/Time
To Go:
Arrived

Flight Plot

Page will automatically refresh every two minutes.

Flight plan parsing failed; only flown route is shown


Map Options




Map Legend


Flown Route
Filed Route
Departure Airport
Arrival Airport
Navaid (VOR, NDB)
Fix

Horizontal Profiles

Position Reports

Time Latitude Longitude Heading Altitude Ground
Speed
08-Aug-18 13:34 36.080389 -115.138848 345 2123ft 0kts
08-Aug-18 13:35 36.080389 -115.138848 345 2123ft 0kts
08-Aug-18 13:36 36.080389 -115.138848 345 2123ft 0kts
08-Aug-18 13:37 36.080389 -115.138848 345 2123ft 0kts
08-Aug-18 13:38 36.080389 -115.138848 345 2123ft 0kts
08-Aug-18 13:39 36.080389 -115.138848 345 2123ft 0kts
08-Aug-18 13:40 36.080389 -115.138848 345 2123ft 0kts
08-Aug-18 13:41 36.080389 -115.138848 345 2123ft 0kts
08-Aug-18 13:42 36.080389 -115.138848 345 2123ft 0kts
08-Aug-18 13:43 36.080389 -115.138848 345 2123ft 0kts
08-Aug-18 13:44 36.080389 -115.138848 345 2123ft 0kts
08-Aug-18 13:45 36.080389 -115.138848 345 2123ft 0kts
08-Aug-18 13:46 36.080389 -115.138848 345 2123ft 0kts
08-Aug-18 13:47 36.080389 -115.138848 345 2123ft 0kts
08-Aug-18 13:48 36.080389 -115.138848 345 2123ft 0kts
08-Aug-18 13:49 36.080389 -115.138848 345 2123ft 0kts
08-Aug-18 13:50 36.080327 -115.138825 333 2123ft 2kts
08-Aug-18 13:51 36.079864 -115.138526 286 2123ft 2kts
08-Aug-18 13:52 36.079943 -115.138190 229 2123ft 0kts
08-Aug-18 13:53 36.079943 -115.138190 229 2123ft 0kts
08-Aug-18 13:54 36.079943 -115.138190 229 2123ft 0kts
08-Aug-18 13:55 36.079943 -115.138190 229 2123ft 0kts
08-Aug-18 13:56 36.079943 -115.138190 229 2123ft 0kts
08-Aug-18 13:57 36.079943 -115.138190 229 2123ft 0kts
08-Aug-18 13:58 36.079943 -115.138190 229 2123ft 0kts
08-Aug-18 13:59 36.079943 -115.138190 229 2123ft 0kts
08-Aug-18 14:00 36.079924 -115.138217 227 2123ft 1kts
08-Aug-18 14:01 36.079753 -115.138434 225 2123ft 2kts
08-Aug-18 14:02 36.079125 -115.139229 225 2123ft 0kts
08-Aug-18 14:03 36.078354 -115.139448 144 2123ft 12kts
08-Aug-18 14:04 36.078222 -115.134192 90 2123ft 18kts
08-Aug-18 14:05 36.078282 -115.127577 90 2123ft 18kts
08-Aug-18 14:06 36.077550 -115.121659 130 2123ft 5kts
08-Aug-18 14:07 36.077509 -115.121605 134 2123ft 0kts
08-Aug-18 14:08 36.077509 -115.121605 134 2123ft 0kts
08-Aug-18 14:09 36.076407 -115.121582 258 2123ft 6kts
08-Aug-18 14:10 36.076427 -115.148726 269 2172ft 172kts
08-Aug-18 14:11 36.077374 -115.199256 270 3627ft 192kts
08-Aug-18 14:12 36.045347 -115.260200 191 5847ft 224kts
08-Aug-18 14:13 35.991182 -115.276560 192 7674ft 255kts
08-Aug-18 14:14 35.902669 -115.294450 160 10113ft 303kts
08-Aug-18 14:15 35.870042 -115.226028 87 11828ft 331kts
08-Aug-18 14:16 35.906806 -115.115343 65 13991ft 357kts
08-Aug-18 14:17 35.949808 -115.003650 65 16377ft 367kts
08-Aug-18 14:18 35.994439 -114.889223 65 18530ft 376kts
08-Aug-18 14:19 36.041620 -114.768252 65 18955ft 401kts
08-Aug-18 14:20 36.089906 -114.644408 65 19052ft 402kts
08-Aug-18 14:21 36.137127 -114.523140 65 20972ft 402kts
08-Aug-18 14:22 36.181113 -114.396468 77 22558ft 403kts
08-Aug-18 14:23 36.203260 -114.261857 81 23848ft 410kts
08-Aug-18 14:24 36.221289 -114.121258 81 25017ft 417kts
08-Aug-18 14:25 36.239503 -113.978290 81 26073ft 424kts
08-Aug-18 14:26 36.276163 -113.840504 60 26945ft 431kts
08-Aug-18 14:27 36.320688 -113.704877 90 27741ft 435kts
08-Aug-18 14:28 36.318520 -113.553708 90 28343ft 446kts
08-Aug-18 14:29 36.316390 -113.401004 90 29424ft 443kts
08-Aug-18 14:30 36.314441 -113.252405 89 30385ft 440kts
08-Aug-18 14:31 36.325264 -113.102013 84 31262ft 438kts
08-Aug-18 14:32 36.363882 -112.961385 60 31916ft 440kts
08-Aug-18 14:33 36.423719 -112.828118 63 32295ft 447kts
08-Aug-18 14:34 36.481668 -112.690054 63 32734ft 453kts
08-Aug-18 14:35 36.538546 -112.549652 63 33183ft 457kts
08-Aug-18 14:36 36.592041 -112.414795 63 33171ft 417kts
08-Aug-18 14:37 36.641067 -112.291066 63 33190ft 414kts
08-Aug-18 14:38 36.688624 -112.158110 66 33153ft 431kts
08-Aug-18 14:39 36.737589 -112.018351 66 33081ft 449kts
08-Aug-18 14:40 36.781994 -111.869992 69 33079ft 466kts
08-Aug-18 14:41 36.824763 -111.714771 64 33082ft 477kts
08-Aug-18 14:42 36.877728 -111.562776 59 33076ft 478kts
08-Aug-18 14:43 36.937736 -111.414403 60 33075ft 479kts
08-Aug-18 14:44 36.993847 -111.272205 65 33076ft 481kts
08-Aug-18 14:45 37.043984 -111.117088 65 33072ft 482kts
08-Aug-18 14:46 37.094199 -110.961401 65 33072ft 483kts
08-Aug-18 14:47 37.148592 -110.811598 61 33078ft 481kts
08-Aug-18 14:48 37.207330 -110.660921 61 33078ft 483kts
08-Aug-18 14:49 37.266442 -110.509414 60 33087ft 484kts
08-Aug-18 14:50 37.325364 -110.358201 60 33105ft 483kts
08-Aug-18 14:51 37.373290 -110.210001 67 33235ft 482kts
08-Aug-18 14:52 37.418557 -110.051359 65 33238ft 481kts
08-Aug-18 14:53 37.469673 -109.896114 65 33237ft 481kts
08-Aug-18 14:54 37.521410 -109.741044 65 33237ft 480kts
08-Aug-18 14:55 37.572736 -109.586083 64 33236ft 480kts
08-Aug-18 14:56 37.623813 -109.431315 64 33227ft 480kts
08-Aug-18 14:57 37.672909 -109.281876 65 33236ft 483kts
08-Aug-18 14:58 37.726756 -109.127834 59 33244ft 482kts
08-Aug-18 14:59 37.790686 -108.978890 59 33234ft 485kts
08-Aug-18 15:00 37.849160 -108.825270 67 33217ft 488kts
08-Aug-18 15:01 37.901839 -108.666399 64 33211ft 490kts
08-Aug-18 15:02 37.956381 -108.508455 63 33221ft 491kts
08-Aug-18 15:03 38.010839 -108.351222 63 33212ft 489kts
08-Aug-18 15:04 38.061941 -108.200109 64 33206ft 488kts
08-Aug-18 15:05 38.114228 -108.048580 63 33370ft 482kts
08-Aug-18 15:06 38.163046 -107.907717 63 33454ft 481kts
08-Aug-18 15:07 38.216064 -107.752004 64 33426ft 483kts
08-Aug-18 15:08 38.269226 -107.594706 64 33241ft 487kts
08-Aug-18 15:09 38.322425 -107.436361 64 33185ft 488kts
08-Aug-18 15:10 38.371750 -107.287106 65 33274ft 486kts
08-Aug-18 15:11 38.423981 -107.128670 64 33291ft 486kts
08-Aug-18 15:12 38.476135 -106.970847 64 33286ft 486kts
08-Aug-18 15:13 38.527731 -106.811307 62 33291ft 487kts
08-Aug-18 15:14 38.581381 -106.652178 63 33292ft 489kts
08-Aug-18 15:15 38.635097 -106.493474 63 31117ft 488kts
08-Aug-18 15:16 38.686036 -106.345185 63 29255ft 468kts
08-Aug-18 15:17 38.737966 -106.194677 63 26965ft 456kts
08-Aug-18 15:18 38.787848 -106.050127 63 25137ft 435kts
08-Aug-18 15:19 38.848892 -105.926940 48 24327ft 385kts
08-Aug-18 15:20 38.915550 -105.820285 48 24346ft 386kts
08-Aug-18 15:21 38.984146 -105.711197 46 23652ft 400kts
08-Aug-18 15:22 39.058708 -105.603871 46 21575ft 404kts
08-Aug-18 15:23 39.132470 -105.505523 45 19591ft 402kts
08-Aug-18 15:24 39.208156 -105.402230 50 17513ft 396kts
08-Aug-18 15:25 39.270538 -105.307899 50 17367ft 320kts
08-Aug-18 15:26 39.327520 -105.221915 50 17376ft 314kts
08-Aug-18 15:27 39.381922 -105.133590 52 17287ft 318kts
08-Aug-18 15:28 39.432336 -105.037723 53 17128ft 325kts
08-Aug-18 15:29 39.483796 -104.940537 53 16783ft 337kts
08-Aug-18 15:30 39.512561 -104.826130 88 14843ft 346kts
08-Aug-18 15:31 39.517580 -104.705878 88 12996ft 310kts
08-Aug-18 15:32 39.560353 -104.636314 353 11498ft 260kts
08-Aug-18 15:33 39.620342 -104.679557 344 10065ft 253kts
08-Aug-18 15:34 39.689180 -104.664842 7 8511ft 258kts
08-Aug-18 15:35 39.749241 -104.662976 357 7481ft 176kts
08-Aug-18 15:36 39.794063 -104.660971 0 5922ft 152kts
08-Aug-18 15:37 39.833616 -104.660491 1 5336ft 141kts
08-Aug-18 15:38 39.852872 -104.661564 313 5327ft 0kts
08-Aug-18 15:39 39.852872 -104.661564 313 5327ft 0kts
08-Aug-18 15:40 39.852872 -104.661564 313 5327ft 0kts
08-Aug-18 15:41 39.852921 -104.663404 268 5327ft 11kts
08-Aug-18 15:42 39.852734 -104.669028 271 5328ft 19kts

Navigation Log

Ident Type
Flight plan parsing failed, navigation log unavailable